CheckWX is a tool to help pilots better visualize weather data.  It is not intended as a substitute for an official pre-flight weather briefing.

20:33:24 UTC

KMIE METAR
Delaware County Regional Airport
Muncie, Indiana, USA
Current

40 mins ago

KMIE 181953Z 29009KT 10SM OVC028 M02/M07 A3031 RMK AO2 SLP272 T10171067 $
Observed
Feb-18 @ 19:53 UTC
Wind
  • 290° at 9 KTS
Visibility
10 SM
Flight Rules
MVFR
Cloud Levels
  • Overcast at 2,800' AGL
Temperature
-2°C / 28°F
Dewpoint
-7°C / 19°F
Humidity
69%
Altimeter
30.31" Hg
Pressure
1027.2 hPa
Previous

2 hours ago

KMIE 181853Z 32012KT 10SM BKN021 OVC029 M01/M06 A3029 RMK AO2 SLP263 T10111061 $
Observed
Feb-18 @ 18:53 UTC
Wind
  • 320° at 12 KTS
Visibility
10 SM
Flight Rules
MVFR
Cloud Levels
  • Broken at 2,100' AGL
  • Overcast at 2,900' AGL
Temperature
-1°C / 30°F
Dewpoint
-6°C / 21°F
Humidity
69%
Altimeter
30.29" Hg
Pressure
1026.3 hPa
Previous

3 hours ago

KMIE 181753Z 32011KT 9SM BKN018 OVC026 M02/M06 A3027 RMK AO2 SLP258 60001 T10171061 11011 21017 51038 $
Observed
Feb-18 @ 17:53 UTC
Wind
  • 320° at 11 KTS
Visibility
9 SM
Flight Rules
MVFR
Cloud Levels
  • Broken at 1,800' AGL
  • Overcast at 2,600' AGL
Temperature
-2°C / 28°F
Dewpoint
-6°C / 21°F
Humidity
74%
Altimeter
30.27" Hg
Pressure
1025.8 hPa